Manteo, NC

6:57 AM EDT on June 26, 2017 (GMT -0400)
Dare County Regional

Weather History for KMQI - August, 2013

Change the Weather History Date:

Tuesday, August 13, 2013

  Actual Average Record
Temperature  
Mean Temperature 80 °F -  
Max Temperature 89 °F 82 °F 98 °F (1977)
Min Temperature 70 °F 72 °F 60 °F (1974)
Cooling Degree Days 14    
Growing Degree Days 30 (Base 50)    
Moisture  
Dew Point 75 °F    
Average Humidity 82    
Maximum Humidity 96    
Minimum Humidity 62    
Precipitation  
Precipitation 0.38 in - - ()
Sea Level Pressure  
Sea Level Pressure 29.85 in    
Wind  
Wind Speed 10 mph (WSW)    
Max Wind Speed 31 mph    
Max Gust Speed 37 mph    
Visibility 10 miles    
Events Rain    
Averages and records for this station are not official NWS values.
T = Trace of Precipitation, MM = Missing Value Source: NWS Daily Summary

Daily Weather History Graph

Daily Weather History Graph

Search for Another Location

Airport or City:

Trip Planner

Search our weather history database for the weather conditions in past years. The results will help you decide how hot, cold, wet, or windy it might be!

Date:

Astronomy

Aug. 13, 2013 Rise Set
Actual Time 6:19 AM EDT 7:54 PM EDT
Civil Twilight 5:52 AM EDT 8:21 PM EDT
Nautical Twilight 5:19 AM EDT 8:54 PM EDT
Astronomical Twilight 4:45 AM EDT 9:29 PM EDT
Moon 12:57 PM EDT (8/13) 11:43 PM EDT (8/13)
Length of Visible Light 14h 29m
Length of Day
13h 34m
Waxing Crescent, 41% of the Moon is Illuminated
Aug 13
Waxing Crescent
Aug 14
First Quarter
Aug 20
Full
Aug 28
Last Quarter
Sep 5
New

Hourly Weather History & Observations

Time (EDT) Temp. Heat Index Dew Point Humidity Pressure Visibility Wind Dir Wind Speed Gust Speed Precip Events Conditions
12:15 AM 81.1 °F 88.0 °F 76.6 °F 86% 29.93 in - WSW 6.9 mph - N/A   Unknown
12:55 AM 80.6 °F 87.3 °F 77.4 °F 90% 29.93 in - West 5.8 mph - N/A   Unknown
1:15 AM 80.6 °F 87.3 °F 77.4 °F 90% 29.93 in - West 5.8 mph - N/A   Unknown
1:35 AM 79.9 °F - 77.2 °F 91% 29.92 in - WSW 4.6 mph - N/A   Unknown
1:55 AM 79.7 °F - 77.4 °F 93% 29.92 in - SSW 5.8 mph - N/A   Unknown
2:15 AM 79.5 °F - 77.9 °F 95% 29.92 in - SW 6.9 mph - N/A   Unknown
2:35 AM 79.7 °F - 78.3 °F 95% 29.92 in - SW 6.9 mph - N/A   Unknown
2:55 AM 79.5 °F - 78.1 °F 95% 29.92 in - SW 8.1 mph - N/A   Unknown
3:15 AM 79.2 °F - 77.7 °F 95% 29.91 in - WSW 9.2 mph - N/A   Unknown
3:35 AM 79.0 °F - 77.0 °F 94% 29.91 in - WSW 9.2 mph - N/A   Unknown
3:55 AM 78.8 °F - 76.1 °F 91% 29.90 in - WSW 9.2 mph - N/A   Unknown
4:15 AM 78.4 °F - 75.6 °F 91% 29.90 in - WSW 10.4 mph - N/A   Unknown
4:35 AM 78.3 °F - 75.2 °F 90% 29.89 in - West 9.2 mph - N/A   Unknown
4:55 AM 78.4 °F - 74.5 °F 88% 29.88 in - West 6.9 mph - N/A   Unknown
5:15 AM 78.4 °F - 74.3 °F 87% 29.88 in - West 6.9 mph - N/A   Clear
5:35 AM 78.3 °F - 74.3 °F 88% 29.88 in - WSW 9.2 mph - N/A   Unknown
5:55 AM 77.9 °F - 74.5 °F 89% 29.88 in - WSW 10.4 mph - N/A   Unknown
6:15 AM 77.5 °F - 74.3 °F 90% 29.89 in - WSW 11.5 mph - N/A   Unknown
6:35 AM 77.2 °F - 74.5 °F 91% 29.89 in - WSW 12.7 mph 17.3 mph N/A   Unknown
6:55 AM 76.6 °F - 74.7 °F 94% 29.89 in - WSW 10.4 mph - N/A   Unknown
7:15 AM 76.5 °F - 74.5 °F 94% 29.88 in - West 8.1 mph - N/A   Unknown
7:35 AM 76.5 °F - 74.3 °F 93% 29.88 in - WSW 9.2 mph - N/A   Unknown
7:55 AM 76.1 °F - 74.5 °F 95% 29.87 in - SW 5.8 mph - N/A   Unknown
8:15 AM 77.0 °F - 74.3 °F 91% 29.87 in - SW 5.8 mph - N/A   Unknown
8:35 AM 78.4 °F - 73.8 °F 85% 29.88 in - WSW 6.9 mph - N/A   Clear
8:55 AM 78.4 °F - 73.8 °F 85% 29.88 in 10.0 mi SSW 15.0 mph - N/A   Clear
9:15 AM 78.3 °F - 74.5 °F 88% 29.88 in - SW 13.8 mph - N/A   Unknown
9:35 AM 79.0 °F - 74.8 °F 87% 29.88 in - SW 10.4 mph - N/A   Unknown
9:55 AM 80.6 °F 86.2 °F 75.2 °F 84% 29.87 in - SW 12.7 mph - N/A   Clear
10:15 AM 81.7 °F 88.3 °F 75.2 °F 81% 29.88 in 10.0 mi SW 15.0 mph - N/A   Clear
10:35 AM 83.3 °F 91.8 °F 76.1 °F 79% 29.88 in 10.0 mi SW 13.8 mph - N/A   Clear
10:55 AM 85.1 °F 94.9 °F 76.5 °F 75% 29.88 in 10.0 mi WSW 12.7 mph - N/A   Clear
11:15 AM 85.5 °F 95.0 °F 75.9 °F 73% 29.88 in 10.0 mi WSW 13.8 mph - N/A   Clear
11:35 AM 86.2 °F 96.9 °F 76.6 °F 73% 29.88 in 10.0 mi WSW 13.8 mph 19.6 mph N/A   Scattered Clouds
11:55 AM 86.7 °F 97.3 °F 76.3 °F 71% 29.86 in 10.0 mi WSW 16.1 mph - N/A   Mostly Cloudy
12:15 PM 87.3 °F 97.7 °F 76.1 °F 69% 29.86 in 10.0 mi WSW 15.0 mph - N/A   Scattered Clouds
12:35 PM 87.1 °F 98.3 °F 76.5 °F 71% 29.86 in 10.0 mi WSW 13.8 mph - N/A   Mostly Cloudy
12:55 PM 87.8 °F 98.6 °F 76.1 °F 68% 29.85 in 10.0 mi West 11.5 mph 20.7 mph N/A   Mostly Cloudy
1:15 PM 85.6 °F 94.6 °F 75.2 °F 71% 29.84 in 10.0 mi West 10.4 mph - N/A   Mostly Cloudy
1:35 PM 88.3 °F 99.5 °F 75.9 °F 67% 29.83 in 10.0 mi West 15.0 mph - N/A   Scattered Clouds
1:55 PM 87.8 °F 98.1 °F 75.6 °F 67% 29.83 in 10.0 mi West 12.7 mph - N/A   Mostly Cloudy
2:15 PM 88.5 °F 98.8 °F 75.6 °F 65% 29.83 in 10.0 mi West 13.8 mph 19.6 mph N/A   Mostly Cloudy
2:35 PM 89.6 °F 99.8 °F 75.2 °F 62% 29.82 in 10.0 mi West 13.8 mph 18.4 mph N/A   Scattered Clouds
2:55 PM 88.7 °F 98.2 °F 74.5 °F 63% 29.82 in 10.0 mi WSW 11.5 mph - N/A   Scattered Clouds
3:15 PM 88.7 °F 98.7 °F 75.0 °F 64% 29.81 in 10.0 mi WSW 15.0 mph - N/A   Scattered Clouds
3:35 PM 87.6 °F 98.2 °F 76.1 °F 68% 29.80 in 10.0 mi SW 17.3 mph - N/A   Mostly Cloudy
3:55 PM 86.4 °F 98.8 °F 77.9 °F 76% 29.79 in 10.0 mi SSW 19.6 mph 24.2 mph N/A   Scattered Clouds
4:15 PM 86.2 °F 96.4 °F 76.1 °F 72% 29.79 in 10.0 mi SW 16.1 mph - N/A   Scattered Clouds
4:35 PM 87.1 °F 97.8 °F 76.3 °F 70% 29.78 in 10.0 mi SW 16.1 mph 20.7 mph N/A   Clear
4:55 PM 86.4 °F 96.0 °F 75.7 °F 70% 29.78 in 10.0 mi SW 13.8 mph - N/A   Clear
5:15 PM 86.9 °F 95.9 °F 74.7 °F 67% 29.78 in 10.0 mi SW 12.7 mph - N/A   Clear
5:35 PM 86.9 °F 94.5 °F 73.6 °F 64% 29.77 in 10.0 mi WSW 15.0 mph - N/A   Clear
5:55 PM 86.0 °F 93.0 °F 73.2 °F 65% 29.78 in 10.0 mi SW 12.7 mph - N/A   Clear
6:15 PM 85.6 °F 93.0 °F 73.4 °F 67% 29.78 in 10.0 mi SW 12.7 mph - N/A   Clear
6:35 PM 84.7 °F 91.7 °F 73.6 °F 69% 29.79 in 10.0 mi SW 12.7 mph - N/A   Clear
6:55 PM 84.2 °F 91.6 °F 74.3 °F 72% 29.80 in 10.0 mi SW 10.4 mph - N/A   Scattered Clouds
7:55 PM 82.9 °F 90.2 °F 75.2 °F 77% 29.81 in 10.0 mi SW 11.5 mph - N/A   Mostly Cloudy
8:15 PM 82.0 °F 88.6 °F 75.0 °F 79% 29.80 in 10.0 mi SW 9.2 mph - N/A   Scattered Clouds
8:35 PM 81.7 °F 88.3 °F 75.4 °F 81% 29.80 in 10.0 mi WNW 6.9 mph - N/A   Mostly Cloudy
8:55 PM 78.1 °F - 74.5 °F 89% 29.83 in 7.0 mi West 31.1 mph 36.8 mph N/A Rain Rain
9:15 PM 70.9 °F - 68.7 °F 93% 29.79 in 2.5 mi East 3.5 mph - 0.02 in Rain Light Rain
9:35 PM 71.6 °F - 68.9 °F 91% 29.80 in 10.0 mi Calm Calm - 0.07 in Rain Light Rain
9:55 PM 71.6 °F - 70.3 °F 96% 29.81 in 10.0 mi Calm Calm - 0.14 in Rain Light Rain
10:15 PM 75.2 °F - 72.3 °F 91% - 10.0 mi SW 8.1 mph - 0.05 in   Mostly Cloudy
10:35 PM 77.5 °F - 72.9 °F 85% 29.82 in 10.0 mi SW 11.5 mph - 0.10 in   Overcast
10:55 PM 77.0 °F - 73.6 °F 89% 29.81 in 10.0 mi SW 9.2 mph - 0.15 in   Light Drizzle
11:15 PM 76.8 °F - 73.2 °F 89% 29.80 in 10.0 mi SSW 11.5 mph - 0.03 in   Mostly Cloudy
11:35 PM 77.0 °F - 74.1 °F 91% 29.80 in 10.0 mi SW 10.4 mph - 0.06 in   Mostly Cloudy
11:55 PM 77.0 °F - 72.9 °F 87% 29.79 in 10.0 mi SW 10.4 mph - 0.09 in   Scattered Clouds